Time,TemperatureF,DewpointF,PressureIn,WindDirection,WindDirectionDegrees,WindSpeedMPH,WindSpeedGustMPH,Humidity,HourlyPrecipIn,Conditions,Clouds,dailyrainin,SolarRadiationWatts/m^2,SoftwareType,DateUTC
2013-02-08 00:09:00,23.6,16.0,30.21,NW,317,3.0,3.0,73,0.00,,,0.00,0,weatherlink.com 1.10,2013-02-08 05:09:00,
2013-02-08 00:24:00,23.2,16.0,30.21,NW,321,1.0,4.0,74,0.00,,,0.00,0,weatherlink.com 1.10,2013-02-08 05:24:00,
2013-02-08 00:40:00,23.6,18.0,30.21,North,360,4.0,7.0,78,0.00,,,0.00,0,weatherlink.com 1.10,2013-02-08 05:40:00,
2013-02-08 00:55:00,24.1,20.0,30.21,NNE,21,7.0,12.0,85,0.00,,,0.00,0,weatherlink.com 1.10,2013-02-08 05:55:00,
2013-02-08 01:10:00,24.0,20.0,30.21,ENE,58,3.0,9.0,85,0.00,,,0.00,0,weatherlink.com 1.10,2013-02-08 06:10:00,
2013-02-08 01:25:00,23.9,20.0,30.21,ENE,63,4.0,8.0,84,0.00,,,0.00,0,weatherlink.com 1.10,2013-02-08 06:25:00,
2013-02-08 01:40:00,23.7,19.0,30.22,NNW,343,2.0,7.0,81,0.00,,,0.00,0,weatherlink.com 1.10,2013-02-08 06:40:00,
2013-02-08 01:55:00,23.2,17.0,30.22,NE,53,1.0,9.0,78,0.00,,,0.00,0,weatherlink.com 1.10,2013-02-08 06:55:00,
2013-02-08 02:10:00,22.7,17.0,30.22,NNW,346,1.0,8.0,78,0.00,,,0.00,0,weatherlink.com 1.10,2013-02-08 07:10:00,
2013-02-08 02:25:00,22.6,17.0,30.23,NNW,345,2.0,9.0,78,0.00,,,0.00,0,weatherlink.com 1.10,2013-02-08 07:25:00,
2013-02-08 02:40:00,22.5,16.0,30.23,NW,309,2.0,8.0,77,0.00,,,0.00,0,weatherlink.com 1.10,2013-02-08 07:40:00,
2013-02-08 02:55:00,22.4,16.0,30.23,NNW,348,1.0,10.0,76,0.00,,,0.00,0,weatherlink.com 1.10,2013-02-08 07:55:00,
2013-02-08 03:10:00,22.2,16.0,30.23,North,360,2.0,6.0,76,0.00,,,0.00,0,weatherlink.com 1.10,2013-02-08 08:10:00,
2013-02-08 03:25:00,22.1,17.0,30.23,NNE,18,4.0,7.0,79,0.00,,,0.00,0,weatherlink.com 1.10,2013-02-08 08:25:00,
2013-02-08 03:40:00,21.9,17.0,30.23,NW,320,3.0,8.0,81,0.00,,,0.00,0,weatherlink.com 1.10,2013-02-08 08:40:00,
2013-02-08 03:55:00,21.8,17.0,30.24,NNW,347,5.0,7.0,80,0.00,,,0.00,0,weatherlink.com 1.10,2013-02-08 08:55:00,
2013-02-08 04:10:00,21.6,16.0,30.23,NNW,327,1.0,9.0,79,0.00,,,0.00,0,weatherlink.com 1.10,2013-02-08 09:10:00,
2013-02-08 04:25:00,21.4,15.0,30.24,NE,37,4.0,7.0,76,0.00,,,0.00,0,weatherlink.com 1.10,2013-02-08 09:25:00,
2013-02-08 04:40:00,21.0,14.0,30.24,NW,318,2.0,11.0,75,0.00,,,0.00,0,weatherlink.com 1.10,2013-02-08 09:40:00,
2013-02-08 04:55:00,21.0,15.0,30.25,WNW,292,2.0,6.0,77,0.00,,,0.00,0,weatherlink.com 1.10,2013-02-08 09:55:00,
2013-02-08 05:10:00,21.3,15.0,30.25,WSW,244,2.0,6.0,78,0.00,,,0.00,0,weatherlink.com 1.10,2013-02-08 10:10:00,
2013-02-08 05:25:00,21.3,15.0,30.25,NW,325,2.0,7.0,78,0.00,,,0.00,0,weatherlink.com 1.10,2013-02-08 10:25:00,
2013-02-08 05:40:00,21.4,16.0,30.26,North,355,0.0,7.0,78,0.00,,,0.00,0,weatherlink.com 1.10,2013-02-08 10:40:00,
2013-02-08 05:55:00,21.4,15.0,30.26,NW,326,2.0,13.0,75,0.00,,,0.00,0,weatherlink.com 1.10,2013-02-08 10:55:00,
2013-02-08 06:10:00,21.3,15.0,30.26,ENE,67,4.0,8.0,75,0.00,,,0.00,0,weatherlink.com 1.10,2013-02-08 11:10:00,
2013-02-08 06:25:00,21.1,17.0,30.25,NNW,327,2.0,5.0,84,0.00,,,0.00,0,weatherlink.com 1.10,2013-02-08 11:25:00,
2013-02-08 06:40:00,21.0,16.0,30.26,NNW,329,2.0,8.0,80,0.00,,,0.00,0,weatherlink.com 1.10,2013-02-08 11:40:00,
2013-02-08 06:55:00,20.9,15.0,30.27,NW,315,2.0,6.0,79,0.00,,,0.00,0,weatherlink.com 1.10,2013-02-08 11:55:00,
2013-02-08 07:10:00,20.8,16.0,30.27,NE,50,4.0,8.0,80,0.00,,,0.00,0,weatherlink.com 1.10,2013-02-08 12:10:00,
2013-02-08 07:25:00,20.9,15.0,30.28,NNW,345,4.0,8.0,78,0.00,,,0.00,0,weatherlink.com 1.10,2013-02-08 12:25:00,
2013-02-08 07:41:00,20.8,15.0,30.28,NNW,329,4.0,7.0,79,0.00,,,0.00,0,weatherlink.com 1.10,2013-02-08 12:41:00,
2013-02-08 07:55:00,20.8,16.0,30.29,NW,325,4.0,5.0,80,0.00,,,0.00,0,weatherlink.com 1.10,2013-02-08 12:55:00,
2013-02-08 08:10:00,20.9,16.0,30.30,WNW,288,5.0,8.0,82,0.00,,,0.00,5,weatherlink.com 1.10,2013-02-08 13:10:00,
2013-02-08 08:25:00,20.9,16.0,30.30,NW,317,1.0,5.0,80,0.00,,,0.00,16,weatherlink.com 1.10,2013-02-08 13:25:00,
2013-02-08 08:41:00,20.7,15.0,30.31,North,355,2.0,6.0,77,0.00,,,0.00,25,weatherlink.com 1.10,2013-02-08 13:41:00,
2013-02-08 08:59:00,20.8,15.0,30.31,NNW,341,0.0,4.0,78,0.00,,,0.00,39,weatherlink.com 1.10,2013-02-08 13:59:00,
2013-02-08 09:12:00,21.0,15.0,30.32,NNW,329,2.0,8.0,79,0.00,,,0.00,62,weatherlink.com 1.10,2013-02-08 14:12:00,
2013-02-08 09:26:00,21.0,16.0,30.32,NNW,337,2.0,5.0,80,0.00,,,0.00,70,weatherlink.com 1.10,2013-02-08 14:26:00,
2013-02-08 09:41:00,21.3,16.0,30.32,North,350,2.0,8.0,80,0.00,,,0.00,81,weatherlink.com 1.10,2013-02-08 14:41:00,
2013-02-08 09:56:00,21.5,16.0,30.33,North,360,2.0,6.0,79,0.00,,,0.00,69,weatherlink.com 1.10,2013-02-08 14:56:00,
2013-02-08 10:11:00,21.8,16.0,30.34,NNW,341,3.0,9.0,79,0.00,,,0.00,69,weatherlink.com 1.10,2013-02-08 15:11:00,
2013-02-08 10:26:00,21.8,17.0,30.34,NE,44,4.0,5.0,82,0.00,,,0.00,93,weatherlink.com 1.10,2013-02-08 15:26:00,
2013-02-08 10:41:00,21.8,17.0,30.34,NNE,32,2.0,7.0,80,0.00,,,0.00,114,weatherlink.com 1.10,2013-02-08 15:41:00,
2013-02-08 10:56:00,22.3,16.0,30.35,North,350,6.0,8.0,77,0.00,,,0.00,153,weatherlink.com 1.10,2013-02-08 15:56:00,
2013-02-08 11:11:00,22.7,16.0,30.35,NE,49,4.0,8.0,74,0.00,,,0.00,155,weatherlink.com 1.10,2013-02-08 16:11:00,
2013-02-08 11:26:00,22.6,16.0,30.36,NNE,12,3.0,8.0,76,0.00,,,0.00,165,weatherlink.com 1.10,2013-02-08 16:26:00,
2013-02-08 11:41:00,22.9,15.0,30.36,NE,43,6.0,8.0,73,0.00,,,0.00,353,weatherlink.com 1.10,2013-02-08 16:41:00,
2013-02-08 11:59:00,23.6,16.0,30.37,NE,45,2.0,8.0,72,0.00,,,0.00,188,weatherlink.com 1.10,2013-02-08 16:59:00,
2013-02-08 12:11:00,24.4,16.0,30.36,NE,55,3.0,6.0,69,0.00,,,0.00,341,weatherlink.com 1.10,2013-02-08 17:11:00,
2013-02-08 12:26:00,24.2,15.0,30.35,ENE,58,5.0,8.0,69,0.00,,,0.00,267,weatherlink.com 1.10,2013-02-08 17:26:00,
2013-02-08 12:41:00,24.5,15.0,30.36,NW,310,3.0,14.0,67,0.00,,,0.00,244,weatherlink.com 1.10,2013-02-08 17:41:00,
2013-02-08 12:56:00,24.7,15.0,30.36,ENE,63,2.0,6.0,68,0.00,,,0.00,202,weatherlink.com 1.10,2013-02-08 17:56:00,
2013-02-08 13:11:00,24.1,15.0,30.36,NNE,17,1.0,11.0,69,0.00,,,0.00,229,weatherlink.com 1.10,2013-02-08 18:11:00,
2013-02-08 13:26:00,23.8,15.0,30.35,NNW,347,2.0,8.0,68,0.00,,,0.00,221,weatherlink.com 1.10,2013-02-08 18:26:00,
2013-02-08 13:41:00,23.7,15.0,30.36,NE,38,4.0,8.0,68,0.00,,,0.00,253,weatherlink.com 1.10,2013-02-08 18:41:00,
2013-02-08 13:56:00,24.5,15.0,30.36,NE,40,6.0,6.0,67,0.00,,,0.00,538,weatherlink.com 1.10,2013-02-08 18:56:00,
2013-02-08 14:11:00,24.1,15.0,30.35,North,355,3.0,9.0,67,0.00,,,0.00,204,weatherlink.com 1.10,2013-02-08 19:11:00,
2013-02-08 14:26:00,23.7,15.0,30.36,North,5,4.0,10.0,68,0.00,,,0.00,195,weatherlink.com 1.10,2013-02-08 19:26:00,
2013-02-08 14:41:00,23.5,15.0,30.36,NNE,31,1.0,4.0,70,0.00,,,0.00,385,weatherlink.com 1.10,2013-02-08 19:41:00,
2013-02-08 14:56:00,23.7,15.0,30.36,NNE,27,3.0,6.0,69,0.00,,,0.00,186,weatherlink.com 1.10,2013-02-08 19:56:00,
2013-02-08 15:11:00,23.6,15.0,30.35,NNE,23,3.0,6.0,70,0.00,,,0.00,172,weatherlink.com 1.10,2013-02-08 20:11:00,
2013-02-08 15:27:00,23.6,15.0,30.35,NNE,15,2.0,4.0,71,0.00,,,0.00,181,weatherlink.com 1.10,2013-02-08 20:27:00,
2013-02-08 15:41:00,23.7,15.0,30.35,NNW,327,1.0,4.0,69,0.00,,,0.00,77,weatherlink.com 1.10,2013-02-08 20:41:00,
2013-02-08 15:56:00,23.3,15.0,30.36,NNW,339,2.0,6.0,71,0.00,,,0.00,323,weatherlink.com 1.10,2013-02-08 20:56:00,
2013-02-08 16:11:00,23.1,15.0,30.36,NNE,22,3.0,7.0,71,0.00,,,0.00,114,weatherlink.com 1.10,2013-02-08 21:11:00,
2013-02-08 16:26:00,22.6,15.0,30.36,NE,47,4.0,7.0,71,0.00,,,0.00,104,weatherlink.com 1.10,2013-02-08 21:26:00,
2013-02-08 16:41:00,22.5,15.0,30.36,North,11,3.0,9.0,72,0.00,,,0.00,58,weatherlink.com 1.10,2013-02-08 21:41:00,
2013-02-08 16:56:00,22.2,14.0,30.36,NNE,19,2.0,7.0,72,0.00,,,0.00,47,weatherlink.com 1.10,2013-02-08 21:56:00,
2013-02-08 17:11:00,21.8,14.0,30.36,NE,54,0.0,2.0,73,0.00,,,0.00,37,weatherlink.com 1.10,2013-02-08 22:11:00,
2013-02-08 17:27:00,21.5,14.0,30.36,North,355,0.0,3.0,74,0.00,,,0.00,28,weatherlink.com 1.10,2013-02-08 22:27:00,
2013-02-08 17:41:00,21.1,14.0,30.36,NW,312,1.0,6.0,75,0.00,,,0.00,18,weatherlink.com 1.10,2013-02-08 22:41:00,
2013-02-08 17:56:00,20.8,14.0,30.36,NE,36,0.0,2.0,75,0.00,,,0.00,5,weatherlink.com 1.10,2013-02-08 22:56:00,
2013-02-08 18:11:00,20.4,14.0,30.36,NE,34,0.0,2.0,75,0.00,,,0.00,0,weatherlink.com 1.10,2013-02-08 23:11:00,
2013-02-08 18:27:00,19.6,13.0,30.36,NE,34,0.0,0.0,76,0.00,,,0.00,0,weatherlink.com 1.10,2013-02-08 23:27:00,
2013-02-08 18:41:00,18.6,13.0,30.36,NE,34,0.0,0.0,78,0.00,,,0.00,0,weatherlink.com 1.10,2013-02-08 23:41:00,
2013-02-08 18:56:00,17.7,12.0,30.37,NE,34,0.0,0.0,79,0.00,,,0.00,0,weatherlink.com 1.10,2013-02-08 23:56:00,
2013-02-08 19:12:00,17.0,12.0,30.36,NE,34,0.0,0.0,80,0.00,,,0.00,0,weatherlink.com 1.10,2013-02-09 00:12:00,
2013-02-08 19:27:00,16.3,11.0,30.36,NE,34,0.0,0.0,81,0.00,,,0.00,0,weatherlink.com 1.10,2013-02-09 00:27:00,
2013-02-08 19:42:00,15.6,11.0,30.36,NE,34,0.0,0.0,81,0.00,,,0.00,0,weatherlink.com 1.10,2013-02-09 00:42:00,
2013-02-08 19:57:00,15.0,10.0,30.36,NE,34,0.0,0.0,82,0.00,,,0.00,0,weatherlink.com 1.10,2013-02-09 00:57:00,
2013-02-08 20:12:00,14.2,10.0,30.36,NE,34,0.0,2.0,82,0.00,,,0.00,0,weatherlink.com 1.10,2013-02-09 01:12:00,
2013-02-08 20:27:00,13.5,9.0,30.36,NE,34,0.0,0.0,83,0.00,,,0.00,0,weatherlink.com 1.10,2013-02-09 01:27:00,
2013-02-08 20:42:00,12.3,8.0,30.36,NE,34,0.0,1.0,83,0.00,,,0.00,0,weatherlink.com 1.10,2013-02-09 01:42:00,
2013-02-08 20:57:00,11.0,7.0,30.36,NE,34,0.0,0.0,84,0.00,,,0.00,0,weatherlink.com 1.10,2013-02-09 01:57:00,
2013-02-08 21:12:00,9.9,6.0,30.37,NE,34,0.0,1.0,85,0.00,,,0.00,0,weatherlink.com 1.10,2013-02-09 02:12:00,
2013-02-08 21:27:00,8.8,5.0,30.37,NE,34,0.0,0.0,85,0.00,,,0.00,0,weatherlink.com 1.10,2013-02-09 02:27:00,
2013-02-08 21:42:00,7.9,4.0,30.37,NE,34,0.0,0.0,85,0.00,,,0.00,0,weatherlink.com 1.10,2013-02-09 02:42:00,
2013-02-08 21:57:00,6.9,3.0,30.38,NE,34,0.0,0.0,85,0.00,,,0.00,0,weatherlink.com 1.10,2013-02-09 02:57:00,
2013-02-08 22:12:00,6.0,3.0,30.38,NE,34,0.0,0.0,85,0.00,,,0.00,0,weatherlink.com 1.10,2013-02-09 03:12:00,
2013-02-08 22:27:00,5.4,2.0,30.38,NE,34,0.0,0.0,85,0.00,,,0.00,0,weatherlink.com 1.10,2013-02-09 03:27:00,
2013-02-08 22:42:00,4.8,1.0,30.37,NE,34,0.0,0.0,85,0.00,,,0.00,0,weatherlink.com 1.10,2013-02-09 03:42:00,
2013-02-08 22:57:00,4.3,1.0,30.36,NE,34,0.0,0.0,85,0.00,,,0.00,0,weatherlink.com 1.10,2013-02-09 03:57:00,
2013-02-08 23:12:00,3.9,0.0,30.36,NE,34,0.0,1.0,85,0.00,,,0.00,0,weatherlink.com 1.10,2013-02-09 04:12:00,
2013-02-08 23:27:00,3.4,0.0,30.37,NE,34,1.0,1.0,85,0.00,,,0.00,0,weatherlink.com 1.10,2013-02-09 04:27:00,
2013-02-08 23:42:00,3.1,0.0,30.37,NE,34,0.0,1.0,85,0.00,,,0.00,0,weatherlink.com 1.10,2013-02-09 04:42:00,
2013-02-08 23:58:00,2.6,-1.0,30.37,NE,34,0.0,1.0,84,0.00,,,0.00,0,weatherlink.com 1.10,2013-02-09 04:58:00,